TimeCST,TemperatureF,Dew PointF,Humidity,Sea Level PressureIn,VisibilityMPH,Wind Direction,Wind SpeedMPH,Gust SpeedMPH,PrecipitationIn,Events,Conditions,WindDirDegrees,DateUTC
12:11 AM,15.8,14.0,93,29.88,10.0,SSW,3.5,-,N/A,,Overcast,200,2013-02-12 06:11:00
12:35 AM,15.8,12.2,86,29.84,10.0,SW,5.8,-,N/A,,Overcast,230,2013-02-12 06:35:00
12:51 AM,15.8,14.0,93,29.87,10.0,Calm,Calm,-,N/A,,Overcast,0,2013-02-12 06:51:00
1:12 AM,15.8,12.2,86,29.87,10.0,SSW,3.5,-,N/A,,Overcast,210,2013-02-12 07:12:00
1:33 AM,12.2,8.6,85,29.82,10.0,WSW,3.5,-,N/A,,Clear,240,2013-02-12 07:33:00
1:51 AM,12.2,10.4,92,29.87,10.0,SW,3.5,-,N/A,,Scattered Clouds,220,2013-02-12 07:51:00
2:11 AM,12.2,10.4,92,29.87,10.0,Calm,Calm,-,N/A,,Clear,0,2013-02-12 08:11:00
2:31 AM,10.4,8.6,92,29.87,10.0,Calm,Calm,-,N/A,,Clear,0,2013-02-12 08:31:00
2:52 AM,8.6,6.8,92,29.87,10.0,SSW,3.5,-,N/A,,Clear,210,2013-02-12 08:52:00
3:13 AM,8.6,6.8,92,29.86,10.0,Calm,Calm,-,N/A,,Clear,0,2013-02-12 09:13:00
3:31 AM,6.8,5.0,92,29.86,10.0,Calm,Calm,-,N/A,,Clear,0,2013-02-12 09:31:00
3:51 AM,6.8,3.2,85,29.86,10.0,Calm,Calm,-,N/A,,Clear,0,2013-02-12 09:51:00
4:11 AM,3.2,1.4,92,29.86,10.0,South,3.5,-,N/A,,Clear,190,2013-02-12 10:11:00
4:36 AM,1.4,-0.4,92,29.86,10.0,South,3.5,-,N/A,,Mostly Cloudy,170,2013-02-12 10:36:00
4:51 AM,1.4,-0.4,92,29.86,10.0,Calm,Calm,-,N/A,,Mostly Cloudy,0,2013-02-12 10:51:00
5:11 AM,3.2,1.4,92,29.86,10.0,South,3.5,-,N/A,Snow,Light Snow,170,2013-02-12 11:11:00
5:31 AM,8.6,6.8,92,29.86,10.0,Calm,Calm,-,N/A,Snow,Light Snow,0,2013-02-12 11:31:00
5:51 AM,8.6,6.8,92,29.85,7.0,South,3.5,-,N/A,Snow,Light Snow,170,2013-02-12 11:51:00
6:11 AM,10.4,8.6,92,29.84,3.0,South,4.6,-,N/A,Snow,Light Snow,190,2013-02-12 12:11:00
6:31 AM,10.4,8.6,92,29.84,3.0,South,5.8,-,N/A,Snow,Light Snow,190,2013-02-12 12:31:00
6:51 AM,10.4,8.6,92,29.83,4.0,SSW,4.6,-,N/A,Snow,Light Snow,200,2013-02-12 12:51:00
7:11 AM,10.4,8.6,92,29.83,7.0,South,4.6,-,N/A,Snow,Light Snow,180,2013-02-12 13:11:00
7:31 AM,12.2,10.4,92,29.82,10.0,South,4.6,-,N/A,Snow,Light Snow,170,2013-02-12 13:31:00
7:51 AM,12.2,10.4,92,29.81,10.0,SSE,5.8,-,N/A,Snow,Light Snow,160,2013-02-12 13:51:00
8:12 AM,12.2,10.4,92,29.80,10.0,South,4.6,-,N/A,,Overcast,180,2013-02-12 14:12:00
8:31 AM,12.2,10.4,92,29.80,10.0,South,5.8,-,N/A,,Overcast,170,2013-02-12 14:31:00
8:52 AM,14.0,12.2,93,29.80,10.0,South,6.9,-,N/A,,Overcast,180,2013-02-12 14:52:00
9:12 AM,14.0,12.2,93,29.80,10.0,South,3.5,-,N/A,,Overcast,170,2013-02-12 15:12:00
9:31 AM,15.8,14.0,93,29.80,10.0,South,3.5,-,N/A,,Overcast,180,2013-02-12 15:31:00
9:51 AM,15.8,14.0,93,29.79,10.0,South,4.6,-,N/A,,Overcast,190,2013-02-12 15:51:00
10:11 AM,17.6,15.8,93,29.78,10.0,South,4.6,-,N/A,,Overcast,180,2013-02-12 16:11:00
10:31 AM,17.6,15.8,93,29.78,10.0,South,8.1,-,N/A,,Overcast,180,2013-02-12 16:31:00
10:51 AM,19.4,17.6,93,29.77,10.0,South,5.8,-,N/A,,Overcast,180,2013-02-12 16:51:00
11:11 AM,21.2,17.6,86,29.77,10.0,SSW,5.8,-,N/A,,Overcast,200,2013-02-12 17:11:00
11:31 AM,21.2,17.6,86,29.76,10.0,SSW,4.6,-,N/A,,Overcast,200,2013-02-12 17:31:00
11:51 AM,21.2,17.6,86,29.76,10.0,South,4.6,-,N/A,,Overcast,190,2013-02-12 17:51:00
12:11 PM,24.8,19.4,80,29.74,10.0,SSW,5.8,-,N/A,,Overcast,210,2013-02-12 18:11:00
12:31 PM,24.8,19.4,80,29.73,10.0,South,5.8,-,N/A,,Overcast,180,2013-02-12 18:31:00
12:51 PM,26.6,21.2,80,29.73,10.0,SW,5.8,-,N/A,,Overcast,230,2013-02-12 18:51:00
1:11 PM,28.4,23.0,80,29.72,10.0,WSW,3.5,-,N/A,,Mostly Cloudy,240,2013-02-12 19:11:00
1:31 PM,30.2,19.4,64,29.72,10.0,SSW,5.8,-,N/A,,Scattered Clouds,210,2013-02-12 19:31:00
1:51 PM,28.4,19.4,69,29.71,10.0,SW,8.1,-,N/A,,Scattered Clouds,220,2013-02-12 19:51:00
2:11 PM,30.2,21.2,69,29.71,10.0,SW,3.5,-,N/A,,Mostly Cloudy,230,2013-02-12 20:11:00
2:31 PM,28.4,19.4,69,29.71,10.0,SW,6.9,-,N/A,,Overcast,230,2013-02-12 20:31:00
2:51 PM,26.6,19.4,74,29.71,10.0,SSW,5.8,-,N/A,,Overcast,210,2013-02-12 20:51:00
3:11 PM,26.6,19.4,74,29.71,10.0,SW,4.6,-,N/A,,Overcast,220,2013-02-12 21:11:00
3:31 PM,28.4,21.2,74,29.71,10.0,SSW,3.5,-,0.01,,Overcast,200,2013-02-12 21:31:00
3:51 PM,30.2,23.0,75,29.70,10.0,SSW,5.8,-,0.01,,Mostly Cloudy,210,2013-02-12 21:51:00
4:11 PM,30.2,21.2,69,29.70,10.0,South,3.5,-,N/A,,Scattered Clouds,190,2013-02-12 22:11:00
4:31 PM,30.2,21.2,69,29.69,10.0,Calm,Calm,-,N/A,,Scattered Clouds,0,2013-02-12 22:31:00
4:51 PM,26.6,19.4,74,29.69,10.0,Calm,Calm,-,N/A,,Clear,0,2013-02-12 22:51:00
5:11 PM,24.8,19.4,80,29.69,10.0,South,4.6,-,N/A,,Clear,180,2013-02-12 23:11:00
5:31 PM,24.8,19.4,80,29.69,10.0,Calm,Calm,-,N/A,,Clear,0,2013-02-12 23:31:00
5:51 PM,21.2,17.6,86,29.68,10.0,Calm,Calm,-,N/A,,Scattered Clouds,0,2013-02-12 23:51:00
6:11 PM,21.2,17.6,86,29.68,10.0,Calm,Calm,-,N/A,,Mostly Cloudy,0,2013-02-13 00:11:00
6:31 PM,23.0,19.4,86,29.68,10.0,Calm,Calm,-,0.01,,Overcast,0,2013-02-13 00:31:00
6:51 PM,24.8,21.2,86,29.67,10.0,South,3.5,-,0.01,,Overcast,180,2013-02-13 00:51:00
7:11 PM,24.8,21.2,86,29.67,10.0,South,3.5,-,N/A,,Mostly Cloudy,180,2013-02-13 01:11:00
7:31 PM,21.2,19.4,93,29.67,10.0,South,3.5,-,N/A,,Scattered Clouds,190,2013-02-13 01:31:00
7:51 PM,21.2,19.4,93,29.66,10.0,South,3.5,-,N/A,,Clear,180,2013-02-13 01:51:00
8:11 PM,21.2,17.6,86,29.66,10.0,South,3.5,-,N/A,,Clear,180,2013-02-13 02:11:00
8:31 PM,21.2,19.4,93,29.66,10.0,South,3.5,-,N/A,,Clear,190,2013-02-13 02:31:00
8:51 PM,21.2,19.4,93,29.66,10.0,SSW,3.5,-,N/A,,Mostly Cloudy,200,2013-02-13 02:51:00
9:11 PM,21.2,19.4,93,29.66,10.0,SSW,3.5,-,N/A,,Scattered Clouds,200,2013-02-13 03:11:00
9:31 PM,19.4,17.6,93,29.67,10.0,Calm,Calm,-,N/A,,Clear,0,2013-02-13 03:31:00
9:51 PM,15.8,12.2,86,29.67,10.0,Calm,Calm,-,N/A,,Clear,0,2013-02-13 03:51:00
10:11 PM,17.6,15.8,93,29.66,10.0,South,3.5,-,N/A,,Clear,190,2013-02-13 04:11:00
10:31 PM,15.8,12.2,86,29.66,10.0,Calm,Calm,-,N/A,,Clear,0,2013-02-13 04:31:00
10:51 PM,12.2,10.4,92,29.65,10.0,Calm,Calm,-,N/A,,Clear,0,2013-02-13 04:51:00
11:11 PM,10.4,8.6,92,29.66,10.0,Calm,Calm,-,N/A,,Clear,0,2013-02-13 05:11:00
11:31 PM,8.6,6.8,92,29.65,10.0,Calm,Calm,-,N/A,,Clear,0,2013-02-13 05:31:00
11:51 PM,8.6,5.0,85,29.66,10.0,Calm,Calm,-,N/A,,Clear,0,2013-02-13 05:51:00